createdAt,value
2023-03-06T00:00:23.245Z,10.70
2023-03-06T00:02:45.471Z,9.47
2023-03-06T00:04:48.336Z,10.57
2023-03-06T00:06:51.687Z,9.67
2023-03-06T00:08:54.663Z,10.40
2023-03-06T00:10:57.575Z,9.10
2023-03-06T00:13:06.288Z,9.60
2023-03-06T00:15:09.377Z,10.23
2023-03-06T00:17:11.865Z,10.50
2023-03-06T00:19:13.961Z,10.30
2023-03-06T00:21:16.344Z,9.13
2023-03-06T00:23:18.654Z,8.67
2023-03-06T00:25:21.962Z,9.97
2023-03-06T00:27:26.456Z,10.87
2023-03-06T00:29:28.836Z,10.17
2023-03-06T00:31:31.066Z,10.10
2023-03-06T00:33:33.476Z,9.33
2023-03-06T00:35:35.856Z,10.13
2023-03-06T00:37:38.976Z,10.50
2023-03-06T00:39:41.118Z,11.07
2023-03-06T00:41:45.429Z,10.67
2023-03-06T00:43:48.993Z,10.53
2023-03-06T00:45:51.525Z,10.33
2023-03-06T00:47:53.686Z,10.83
2023-03-06T00:49:56.105Z,10.97
2023-03-06T00:51:58.268Z,9.97
2023-03-06T00:54:00.699Z,11.20
2023-03-06T00:56:02.917Z,12.07
2023-03-06T00:58:05.307Z,10.23
2023-03-06T01:00:08.156Z,11.63
2023-03-06T01:02:11.101Z,11.03
2023-03-06T01:04:13.435Z,11.73
2023-03-06T01:06:15.788Z,11.47
2023-03-06T01:08:17.894Z,12.27
2023-03-06T01:10:20.425Z,11.27
2023-03-06T01:12:23.564Z,9.93
2023-03-06T01:14:26.396Z,11.90
2023-03-06T01:16:29.306Z,12.83
2023-03-06T01:18:31.837Z,11.73
2023-03-06T01:20:34.197Z,12.10
2023-03-06T01:22:36.696Z,11.70
2023-03-06T01:24:39.179Z,11.03
2023-03-06T01:26:41.521Z,10.87
2023-03-06T01:28:44.241Z,10.57
2023-03-06T01:30:46.624Z,12.60
2023-03-06T01:32:48.953Z,12.77
2023-03-06T01:34:51.403Z,13.10
2023-03-06T01:36:53.472Z,12.13
2023-03-06T01:38:56.271Z,12.33
2023-03-06T01:40:58.502Z,13.57
2023-03-06T01:43:12.102Z,12.97
2023-03-06T01:45:14.140Z,13.53
2023-03-06T01:47:19.549Z,12.00
2023-03-06T01:49:40.130Z,13.17
2023-03-06T01:51:48.174Z,11.83
2023-03-06T01:53:51.986Z,11.83
2023-03-06T01:55:55.226Z,11.60
2023-03-06T01:58:00.456Z,11.03
2023-03-06T02:00:12.697Z,12.10
2023-03-06T02:02:16.093Z,10.60
2023-03-06T02:04:19.156Z,12.47
2023-03-06T02:06:22.000Z,11.30
2023-03-06T02:08:24.868Z,11.10
2023-03-06T02:10:26.974Z,10.60
2023-03-06T02:12:29.774Z,10.57
2023-03-06T02:14:32.243Z,10.17
2023-03-06T02:16:35.052Z,9.70
2023-03-06T02:18:38.277Z,11.17
2023-03-06T02:20:48.714Z,10.07
2023-03-06T02:23:11.968Z,10.83
2023-03-06T02:25:26.505Z,10.70
2023-03-06T02:27:29.051Z,9.93
2023-03-06T02:29:32.264Z,10.23
2023-03-06T02:31:35.610Z,12.27
2023-03-06T02:33:38.035Z,11.47
2023-03-06T02:35:43.901Z,12.70
2023-03-06T02:37:47.196Z,12.60
2023-03-06T02:39:57.364Z,12.93
2023-03-06T02:41:59.743Z,13.63
2023-03-06T02:44:01.829Z,13.03
2023-03-06T02:46:04.686Z,13.83
2023-03-06T02:48:07.145Z,12.93
2023-03-06T02:50:10.440Z,13.87
2023-03-06T02:52:12.538Z,13.47
2023-03-06T02:54:15.044Z,13.60
2023-03-06T02:56:19.353Z,13.30
2023-03-06T02:58:21.831Z,14.83
2023-03-06T03:00:24.194Z,12.37
2023-03-06T03:02:26.743Z,13.97
2023-03-06T03:04:28.936Z,14.13
2023-03-06T03:06:31.288Z,12.23
2023-03-06T03:08:34.662Z,12.13
2023-03-06T03:10:37.201Z,12.93
2023-03-06T03:12:39.450Z,12.70
2023-03-06T03:14:42.025Z,13.87
2023-03-06T03:16:45.554Z,11.97
2023-03-06T03:18:48.210Z,13.03
2023-03-06T03:20:50.327Z,10.87
2023-03-06T03:22:55.536Z,11.67
2023-03-06T03:24:57.713Z,13.37
2023-03-06T03:27:00.118Z,11.57
2023-03-06T03:29:04.248Z,11.73
2023-03-06T03:31:09.114Z,11.53
2023-03-06T03:33:11.919Z,12.30
2023-03-06T03:35:14.507Z,13.80
2023-03-06T03:37:16.689Z,14.13
2023-03-06T03:39:19.885Z,13.20
2023-03-06T03:41:22.001Z,13.43
2023-03-06T03:43:24.726Z,13.53
2023-03-06T03:45:26.976Z,14.00
2023-03-06T03:47:29.359Z,13.13
2023-03-06T03:49:31.765Z,13.17
2023-03-06T03:51:34.251Z,12.83
2023-03-06T03:53:36.485Z,12.70
2023-03-06T03:55:38.852Z,11.70
2023-03-06T03:57:41.431Z,12.70
2023-03-06T03:59:43.776Z,12.70
2023-03-06T04:01:46.136Z,11.47
2023-03-06T04:03:48.562Z,12.03
2023-03-06T04:05:54.001Z,11.73
2023-03-06T04:07:56.476Z,11.67
2023-03-06T04:09:58.527Z,10.43
2023-03-06T04:12:00.984Z,11.37
2023-03-06T04:14:03.535Z,11.73
2023-03-06T04:16:06.473Z,12.37
2023-03-06T04:18:08.652Z,12.80
2023-03-06T04:20:11.677Z,10.40
2023-03-06T04:22:13.856Z,11.50
2023-03-06T04:24:19.267Z,11.87
2023-03-06T04:26:21.386Z,11.77
2023-03-06T04:28:24.122Z,11.20
2023-03-06T04:30:26.357Z,12.30
2023-03-06T04:32:28.811Z,10.87
2023-03-06T04:34:30.981Z,11.70
2023-03-06T04:36:34.734Z,10.90
2023-03-06T04:38:37.044Z,10.43
2023-03-06T04:40:39.893Z,11.27
2023-03-06T04:42:42.163Z,9.60
2023-03-06T04:44:46.147Z,11.17
2023-03-06T04:46:48.414Z,11.50
2023-03-06T04:48:50.882Z,10.07
2023-03-06T04:50:53.150Z,12.63
2023-03-06T04:52:56.028Z,10.17
2023-03-06T04:54:58.610Z,9.83
2023-03-06T04:57:01.732Z,9.87
2023-03-06T04:59:04.775Z,9.93
2023-03-06T05:01:07.804Z,10.27
2023-03-06T05:03:17.573Z,9.27
2023-03-06T05:07:22.506Z,8.43
2023-03-06T05:09:25.330Z,8.70
2023-03-06T05:11:28.110Z,8.00
2023-03-06T05:13:30.907Z,8.27
2023-03-06T05:15:33.216Z,8.60
2023-03-06T05:17:35.933Z,11.03
2023-03-06T05:19:38.401Z,13.37
2023-03-06T05:21:40.771Z,12.80
2023-03-06T05:23:42.862Z,12.43
2023-03-06T05:25:45.561Z,11.53
2023-03-06T05:27:47.891Z,11.43
2023-03-06T05:29:50.467Z,10.60
2023-03-06T05:31:52.604Z,10.23
2023-03-06T05:33:55.339Z,10.33
2023-03-06T05:35:57.719Z,9.93
2023-03-06T05:38:00.201Z,10.50
2023-03-06T05:40:06.367Z,9.50
2023-03-06T05:42:08.739Z,9.57
2023-03-06T05:44:11.032Z,9.60
2023-03-06T05:46:13.681Z,7.83
2023-03-06T05:48:18.867Z,7.87
2023-03-06T05:50:21.531Z,8.40
2023-03-06T05:52:23.893Z,8.73
2023-03-06T05:54:26.804Z,8.82
2023-03-06T05:56:29.467Z,8.55
2023-03-06T05:58:33.570Z,9.15
2023-03-06T06:00:36.137Z,7.90
2023-03-06T06:02:38.627Z,8.60
2023-03-06T06:04:41.194Z,7.80
2023-03-06T06:06:43.989Z,9.07
2023-03-06T06:08:46.445Z,8.35
2023-03-06T06:10:50.443Z,8.52
2023-03-06T06:12:54.658Z,8.57
2023-03-06T06:14:57.174Z,8.85
2023-03-06T06:16:59.622Z,8.45
2023-03-06T06:19:02.384Z,8.43
2023-03-06T06:21:09.466Z,8.77
2023-03-06T06:23:12.382Z,8.38
2023-03-06T06:25:14.463Z,7.78
2023-03-06T06:27:17.908Z,7.18
2023-03-06T06:29:20.519Z,7.93
2023-03-06T06:31:23.377Z,8.20
2023-03-06T06:33:26.203Z,7.10
2023-03-06T06:35:28.600Z,7.65
2023-03-06T06:37:31.397Z,7.30
2023-03-06T06:39:34.166Z,7.47
2023-03-06T06:41:53.657Z,7.63
2023-03-06T06:43:59.220Z,7.90
2023-03-06T06:46:23.090Z,7.10
2023-03-06T06:48:24.097Z,7.00
2023-03-06T06:50:26.551Z,8.25
2023-03-06T06:52:29.044Z,7.70
2023-03-06T06:54:31.126Z,7.97
2023-03-06T06:56:33.561Z,7.22
2023-03-06T06:58:35.754Z,7.90
2023-03-06T07:00:38.097Z,8.15
2023-03-06T07:02:40.195Z,8.40
2023-03-06T07:04:56.497Z,7.45
2023-03-06T07:07:06.918Z,7.30
2023-03-06T07:09:10.780Z,8.23
2023-03-06T07:11:15.748Z,7.93
2023-03-06T07:13:18.259Z,8.23
2023-03-06T07:15:20.444Z,7.15
2023-03-06T07:17:23.182Z,7.43
2023-03-06T07:19:25.540Z,7.35
2023-03-06T07:21:27.985Z,7.10
2023-03-06T07:23:30.468Z,7.07
2023-03-06T07:25:32.900Z,7.35
2023-03-06T07:27:35.474Z,8.70
2023-03-06T07:29:37.896Z,9.20
2023-03-06T07:31:40.043Z,8.23
2023-03-06T07:33:42.834Z,9.30
2023-03-06T07:35:45.096Z,8.90
2023-03-06T07:37:47.902Z,9.25
2023-03-06T07:39:50.170Z,10.40
2023-03-06T07:41:56.074Z,9.48
2023-03-06T07:43:58.263Z,10.30
2023-03-06T07:46:01.283Z,10.32
2023-03-06T07:48:05.575Z,9.23
2023-03-06T07:50:09.245Z,10.35
2023-03-06T07:52:12.837Z,11.13
2023-03-06T07:54:15.666Z,10.85
2023-03-06T07:56:18.356Z,10.05
2023-03-06T07:58:21.148Z,10.63
2023-03-06T08:00:23.821Z,10.70
2023-03-06T08:02:26.572Z,9.88
2023-03-06T08:04:30.276Z,10.63
2023-03-06T08:06:33.277Z,10.80
2023-03-06T08:08:39.427Z,10.95
2023-03-06T08:10:42.332Z,9.80
2023-03-06T08:12:44.662Z,9.32
2023-03-06T08:14:47.421Z,8.73
2023-03-06T08:16:51.285Z,8.23
2023-03-06T08:18:54.827Z,8.15
2023-03-06T08:21:08.882Z,7.95
2023-03-06T08:23:12.063Z,7.97
2023-03-06T08:25:14.613Z,7.20
2023-03-06T08:27:18.842Z,8.10
2023-03-06T08:29:20.986Z,8.40
2023-03-06T08:31:28.494Z,8.85
2023-03-06T08:33:30.954Z,9.13
2023-03-06T08:35:33.835Z,8.38
2023-03-06T08:37:36.451Z,7.30
2023-03-06T08:39:39.240Z,7.53
2023-03-06T08:41:45.043Z,8.23
2023-03-06T08:43:48.205Z,8.20
2023-03-06T08:45:55.286Z,6.80
2023-03-06T08:47:58.089Z,8.27
2023-03-06T08:50:00.778Z,7.47
2023-03-06T08:52:03.827Z,7.68
2023-03-06T08:54:06.631Z,7.13
2023-03-06T08:56:19.249Z,7.45
2023-03-06T08:58:21.895Z,7.47
2023-03-06T09:00:25.159Z,8.15
2023-03-06T09:02:27.496Z,7.40
2023-03-06T09:04:31.302Z,8.52
2023-03-06T09:06:36.027Z,7.95
2023-03-06T09:08:42.966Z,8.88
2023-03-06T09:10:48.954Z,8.55
2023-03-06T09:12:54.741Z,8.07
2023-03-06T09:14:57.420Z,8.18
2023-03-06T09:17:00.214Z,8.18
2023-03-06T09:19:02.766Z,7.88
2023-03-06T09:21:05.814Z,8.00
2023-03-06T09:23:08.269Z,8.50
2023-03-06T09:25:13.292Z,7.57
2023-03-06T09:27:18.079Z,8.18
2023-03-06T09:29:20.660Z,7.78
2023-03-06T09:31:24.995Z,7.75
2023-03-06T09:33:28.809Z,7.35
2023-03-06T09:35:31.278Z,8.80
2023-03-06T09:37:34.034Z,8.02
2023-03-06T09:39:36.928Z,8.05
2023-03-06T09:41:42.398Z,7.30
2023-03-06T09:43:51.666Z,8.95
2023-03-06T09:45:54.319Z,9.30
2023-03-06T09:48:07.801Z,8.05
2023-03-06T09:50:17.061Z,8.00
2023-03-06T09:52:31.501Z,8.23
2023-03-06T09:54:39.707Z,8.07
2023-03-06T09:56:49.200Z,9.32
2023-03-06T09:58:56.823Z,8.50
2023-03-06T10:01:30.294Z,7.25
2023-03-06T10:03:35.934Z,8.27
2023-03-06T10:05:47.052Z,8.25
2023-03-06T10:07:57.087Z,7.72
2023-03-06T10:10:05.245Z,8.23
2023-03-06T10:12:29.236Z,8.73
2023-03-06T10:14:44.012Z,9.18
2023-03-06T10:16:46.893Z,9.20
2023-03-06T10:18:49.179Z,8.98
2023-03-06T10:21:18.503Z,7.88
2023-03-06T10:23:54.699Z,7.57
2023-03-06T10:26:32.698Z,8.40
2023-03-06T10:28:42.128Z,8.88
2023-03-06T10:30:50.675Z,8.75
2023-03-06T10:32:58.380Z,7.40
2023-03-06T10:35:02.687Z,8.90
2023-03-06T10:37:21.470Z,7.63
2023-03-06T10:39:24.814Z,7.63
2023-03-06T10:41:32.036Z,8.20
2023-03-06T10:43:36.528Z,8.25
2023-03-06T10:45:53.087Z,8.38
2023-03-06T10:48:12.008Z,7.07
2023-03-06T10:50:28.928Z,7.05
2023-03-06T10:52:33.638Z,7.10
2023-03-06T10:54:41.349Z,6.25
2023-03-06T10:56:46.273Z,6.45
2023-03-06T10:58:48.820Z,6.25
2023-03-06T11:01:30.631Z,6.45
2023-03-06T11:03:33.787Z,6.40
2023-03-06T11:05:36.624Z,5.38
2023-03-06T11:07:57.357Z,5.40
2023-03-06T11:10:01.837Z,5.10
2023-03-06T11:12:25.192Z,5.10
2023-03-06T11:14:27.762Z,5.50
2023-03-06T11:16:30.864Z,5.93
2023-03-06T11:18:40.660Z,5.17
2023-03-06T11:20:53.383Z,4.72
2023-03-06T11:22:57.356Z,4.50
2023-03-06T11:24:59.489Z,4.27
2023-03-06T11:27:17.405Z,4.43
2023-03-06T11:29:43.443Z,4.73
2023-03-06T11:32:03.060Z,4.80
2023-03-06T11:34:05.605Z,6.07
2023-03-06T11:36:25.444Z,5.07
2023-03-06T11:38:36.319Z,4.30
2023-03-06T11:41:08.219Z,5.00
2023-03-06T11:43:51.134Z,4.90
2023-03-06T11:46:28.058Z,5.50
2023-03-06T11:48:41.354Z,5.03
2023-03-06T11:50:47.593Z,6.23
2023-03-06T11:53:17.544Z,5.17
2023-03-06T11:55:43.836Z,5.53
2023-03-06T11:57:55.830Z,5.10
2023-03-06T11:59:58.660Z,6.67
2023-03-06T12:02:19.691Z,7.83
2023-03-06T12:04:33.435Z,7.50
2023-03-06T12:06:54.647Z,7.50
2023-03-06T12:09:15.478Z,7.73
2023-03-06T12:11:26.830Z,6.53
2023-03-06T12:14:04.897Z,7.03
2023-03-06T12:16:34.900Z,6.60
2023-03-06T12:18:49.801Z,7.23
2023-03-06T12:20:55.346Z,8.23
2023-03-06T12:23:28.609Z,9.13
2023-03-06T12:25:39.624Z,9.53
2023-03-06T12:28:02.468Z,8.97
2023-03-06T12:30:10.565Z,8.47
2023-03-06T12:32:19.512Z,7.20
2023-03-06T12:34:31.395Z,8.50
2023-03-06T12:36:57.808Z,8.63
2023-03-06T12:39:12.042Z,9.33
2023-03-06T12:41:37.475Z,9.07
2023-03-06T12:43:58.130Z,8.77
2023-03-06T12:46:22.587Z,8.57
2023-03-06T12:48:27.495Z,9.37
2023-03-06T12:50:31.544Z,7.40
2023-03-06T12:52:34.598Z,8.37
2023-03-06T12:54:40.531Z,8.47
2023-03-06T12:56:43.661Z,8.63
2023-03-06T12:58:57.003Z,7.93
2023-03-06T13:01:04.256Z,9.43
2023-03-06T13:03:14.997Z,8.30
2023-03-06T13:05:32.349Z,8.93
2023-03-06T13:07:37.841Z,10.17
2023-03-06T13:10:07.669Z,9.03
2023-03-06T13:14:42.391Z,8.73
2023-03-06T13:16:51.597Z,8.73
2023-03-06T13:19:02.267Z,8.60
2023-03-06T13:21:05.425Z,8.90
2023-03-06T13:23:29.560Z,8.93
2023-03-06T13:25:32.752Z,9.13
2023-03-06T13:28:03.357Z,9.40
2023-03-06T13:30:21.069Z,8.40
2023-03-06T13:32:30.581Z,8.60
2023-03-06T13:34:46.880Z,8.77
2023-03-06T13:36:49.036Z,8.10
2023-03-06T13:38:51.793Z,10.03
2023-03-06T13:41:22.979Z,9.37
2023-03-06T13:43:25.590Z,9.63
2023-03-06T13:45:38.697Z,10.43
2023-03-06T13:48:15.893Z,10.87
2023-03-06T13:50:26.670Z,11.80
2023-03-06T13:52:47.917Z,11.00
2023-03-06T13:55:02.457Z,10.57
2023-03-06T13:57:22.370Z,11.10
2023-03-06T13:59:24.882Z,11.13
2023-03-06T14:01:51.238Z,11.20
2023-03-06T14:04:47.609Z,11.57
2023-03-06T14:07:23.229Z,10.83
2023-03-06T14:09:47.196Z,10.67
2023-03-06T14:11:55.014Z,11.47
2023-03-06T14:13:58.051Z,10.10
2023-03-06T14:16:00.862Z,12.23
2023-03-06T14:18:13.538Z,11.33
2023-03-06T14:20:19.849Z,11.80
2023-03-06T14:22:24.542Z,10.90
2023-03-06T14:24:43.671Z,11.10
2023-03-06T14:26:51.756Z,11.70
2023-03-06T14:28:59.274Z,11.07
2023-03-06T14:31:04.480Z,11.10
2023-03-06T14:33:11.327Z,12.20
2023-03-06T14:35:30.828Z,10.90
2023-03-06T14:37:37.293Z,12.38
2023-03-06T14:39:44.836Z,10.57
2023-03-06T14:41:47.698Z,9.67
2023-03-06T14:43:49.837Z,9.67
2023-03-06T14:46:04.398Z,10.50
2023-03-06T14:48:07.009Z,9.70
2023-03-06T14:50:26.073Z,8.40
2023-03-06T14:52:28.548Z,7.90
2023-03-06T14:54:36.979Z,7.10
2023-03-06T14:56:46.032Z,7.80
2023-03-06T14:58:51.745Z,7.00
2023-03-06T15:00:56.681Z,7.38
2023-03-06T15:02:59.791Z,7.93
2023-03-06T15:05:20.498Z,8.38
2023-03-06T15:07:30.417Z,7.07
2023-03-06T15:09:36.830Z,8.00
2023-03-06T15:11:52.420Z,7.22
2023-03-06T15:14:04.978Z,6.68
2023-03-06T15:16:30.381Z,6.03
2023-03-06T15:18:36.217Z,6.77
2023-03-06T15:20:41.672Z,7.22
2023-03-06T15:22:46.827Z,7.45
2023-03-06T15:24:49.379Z,6.45
2023-03-06T15:26:58.087Z,6.32
2023-03-06T15:29:10.354Z,7.22
2023-03-06T15:31:21.374Z,5.82
2023-03-06T15:33:26.336Z,6.65
2023-03-06T15:35:34.269Z,5.20
2023-03-06T15:37:38.242Z,6.22
2023-03-06T15:39:41.616Z,5.60
2023-03-06T15:41:45.039Z,5.45
2023-03-06T15:43:47.418Z,5.38
2023-03-06T15:45:50.088Z,6.07
2023-03-06T15:47:54.522Z,4.65
2023-03-06T15:49:57.069Z,5.80
2023-03-06T15:51:59.283Z,5.55
2023-03-06T15:54:11.845Z,5.55
2023-03-06T15:56:17.722Z,5.07
2023-03-06T15:58:23.902Z,4.65
2023-03-06T16:00:35.780Z,4.72
2023-03-06T16:02:38.379Z,4.90
2023-03-06T16:04:40.500Z,5.00
2023-03-06T16:06:46.339Z,5.72
2023-03-06T16:08:48.459Z,5.35
2023-03-06T16:10:52.543Z,4.93
2023-03-06T16:13:03.033Z,4.93
2023-03-06T16:15:11.886Z,4.85
2023-03-06T16:17:14.512Z,6.13
2023-03-06T16:19:28.736Z,5.43
2023-03-06T16:21:30.867Z,5.80
2023-03-06T16:23:33.341Z,5.03
2023-03-06T16:25:36.178Z,4.30
2023-03-06T16:27:38.673Z,5.47
2023-03-06T16:29:40.876Z,5.13
2023-03-06T16:31:43.755Z,4.85
2023-03-06T16:33:45.820Z,5.25
2023-03-06T16:35:48.390Z,5.37
2023-03-06T16:37:51.066Z,4.97
2023-03-06T16:39:53.565Z,5.53
2023-03-06T16:41:55.807Z,6.22
2023-03-06T16:43:58.318Z,6.50
2023-03-06T16:46:03.885Z,6.17
2023-03-06T16:48:06.870Z,5.70
2023-03-06T16:50:37.715Z,6.17
2023-03-06T16:52:40.200Z,6.30
2023-03-06T16:54:44.531Z,5.67
2023-03-06T16:56:47.218Z,6.37
2023-03-06T16:58:49.421Z,7.00
2023-03-06T17:00:51.902Z,7.20
2023-03-06T17:02:54.525Z,6.38
2023-03-06T17:04:56.985Z,6.30
2023-03-06T17:06:59.105Z,7.23
2023-03-06T17:09:01.574Z,7.13
2023-03-06T17:11:06.313Z,6.57
2023-03-06T17:13:10.747Z,6.83
2023-03-06T17:15:13.096Z,8.07
2023-03-06T17:17:15.622Z,6.90
2023-03-06T17:19:17.793Z,7.23
2023-03-06T17:21:20.770Z,7.57
2023-03-06T17:23:31.938Z,8.20
2023-03-06T17:25:35.140Z,7.53
2023-03-06T17:27:38.023Z,7.67
2023-03-06T17:29:40.744Z,8.07
2023-03-06T17:31:43.278Z,8.17
2023-03-06T17:33:46.495Z,6.33
2023-03-06T17:35:48.653Z,7.47
2023-03-06T17:37:51.653Z,7.77
2023-03-06T17:39:54.003Z,7.50
2023-03-06T17:41:56.672Z,8.70
2023-03-06T17:43:59.119Z,7.80
2023-03-06T17:46:09.595Z,8.63
2023-03-06T17:50:14.654Z,7.03
2023-03-06T17:52:16.749Z,7.43
2023-03-06T17:54:19.826Z,7.40
2023-03-06T17:56:22.196Z,6.63
2023-03-06T17:58:25.669Z,7.33
2023-03-06T18:00:28.222Z,7.37
2023-03-06T18:02:31.061Z,7.70
2023-03-06T18:04:33.431Z,8.53
2023-03-06T18:06:36.392Z,8.20
2023-03-06T18:08:43.737Z,9.40
2023-03-06T18:10:47.705Z,9.17
2023-03-06T18:12:50.338Z,9.20
2023-03-06T18:14:53.190Z,10.47
2023-03-06T18:16:55.458Z,10.43
2023-03-06T18:18:58.035Z,11.47
2023-03-06T18:21:05.352Z,10.43
2023-03-06T18:23:08.236Z,10.97
2023-03-06T18:25:10.569Z,11.43
2023-03-06T18:27:13.169Z,10.43
2023-03-06T18:29:16.059Z,10.83
2023-03-06T18:31:21.653Z,9.93
2023-03-06T18:33:24.612Z,10.20
2023-03-06T18:35:27.689Z,10.33
2023-03-06T18:37:30.271Z,11.67
2023-03-06T18:39:33.511Z,11.20
2023-03-06T18:41:36.546Z,11.73
2023-03-06T18:43:39.939Z,12.00
2023-03-06T18:45:44.295Z,12.43
2023-03-06T18:47:46.948Z,13.40
2023-03-06T18:49:49.762Z,12.73
2023-03-06T18:51:52.602Z,14.27
2023-03-06T18:53:58.267Z,14.03
2023-03-06T18:56:01.217Z,14.97
2023-03-06T18:58:03.760Z,14.47
2023-03-06T19:00:19.034Z,15.07
2023-03-06T19:02:24.832Z,13.47
2023-03-06T19:04:27.830Z,14.53
2023-03-06T19:06:30.617Z,13.37
2023-03-06T19:08:33.924Z,13.87
2023-03-06T19:10:41.119Z,14.03
2023-03-06T19:12:43.526Z,14.80
2023-03-06T19:14:46.088Z,15.63
2023-03-06T19:16:48.955Z,15.37
2023-03-06T19:18:51.561Z,14.27
2023-03-06T19:20:54.864Z,16.37
2023-03-06T19:22:57.505Z,14.73
2023-03-06T19:25:02.766Z,16.37
2023-03-06T19:27:08.043Z,14.30
2023-03-06T19:29:10.905Z,14.53
2023-03-06T19:31:21.339Z,14.20
2023-03-06T19:33:23.842Z,15.23
2023-03-06T19:35:27.701Z,15.67
2023-03-06T19:37:30.590Z,15.63
2023-03-06T19:39:32.840Z,16.43
2023-03-06T19:41:35.600Z,15.90
2023-03-06T19:43:38.510Z,15.50
2023-03-06T19:45:47.694Z,14.40
2023-03-06T19:47:50.602Z,13.23
2023-03-06T19:49:53.050Z,13.27
2023-03-06T19:51:55.512Z,13.43
2023-03-06T19:53:58.763Z,12.87
2023-03-06T19:56:14.988Z,13.00
2023-03-06T19:58:22.393Z,12.07
2023-03-06T20:00:25.210Z,11.23
2023-03-06T20:02:28.565Z,12.47
2023-03-06T20:04:33.035Z,11.60
2023-03-06T20:06:38.970Z,11.20
2023-03-06T20:08:41.657Z,11.13
2023-03-06T20:10:44.684Z,9.23
2023-03-06T20:12:47.007Z,9.83
2023-03-06T20:14:52.736Z,9.37
2023-03-06T20:16:56.600Z,9.10
2023-03-06T20:19:01.145Z,10.10
2023-03-06T20:21:05.456Z,9.73
2023-03-06T20:23:08.334Z,9.13
2023-03-06T20:25:10.897Z,9.40
2023-03-06T20:27:13.987Z,9.67
2023-03-06T20:29:19.329Z,7.60
2023-03-06T20:31:25.028Z,8.27
2023-03-06T20:33:27.858Z,7.77
2023-03-06T20:35:30.633Z,7.87
2023-03-06T20:37:32.837Z,7.87
2023-03-06T20:39:36.092Z,8.80
2023-03-06T20:41:51.490Z,8.03
2023-03-06T20:43:54.659Z,7.77
2023-03-06T20:45:58.751Z,7.70
2023-03-06T20:48:02.094Z,8.10
2023-03-06T20:50:04.680Z,7.53
2023-03-06T20:52:07.621Z,7.80
2023-03-06T20:54:13.118Z,8.40
2023-03-06T20:56:18.786Z,7.10
2023-03-06T20:58:26.659Z,7.53
2023-03-06T21:00:29.001Z,8.00
2023-03-06T21:02:31.259Z,7.60
2023-03-06T21:04:33.715Z,8.20
2023-03-06T21:06:37.504Z,8.37
2023-03-06T21:08:40.319Z,8.17
2023-03-06T21:10:44.644Z,8.63
2023-03-06T21:12:47.353Z,8.63
2023-03-06T21:14:49.534Z,7.83
2023-03-06T21:16:51.968Z,8.37
2023-03-06T21:18:55.453Z,8.80
2023-03-06T21:20:57.809Z,8.40
2023-03-06T21:23:02.794Z,8.73
2023-03-06T21:25:05.599Z,8.07
2023-03-06T21:27:07.983Z,9.00
2023-03-06T21:29:10.602Z,8.97
2023-03-06T21:31:14.873Z,9.67
2023-03-06T21:33:20.117Z,9.03
2023-03-06T21:35:22.201Z,10.80
2023-03-06T21:37:25.248Z,8.90
2023-03-06T21:39:27.600Z,10.97
2023-03-06T21:41:32.351Z,10.57
2023-03-06T21:43:34.475Z,9.60
2023-03-06T21:45:37.253Z,10.27
2023-03-06T21:47:41.037Z,9.50
2023-03-06T21:49:43.422Z,9.60
2023-03-06T21:51:45.763Z,9.97
2023-03-06T21:53:49.284Z,9.67
2023-03-06T21:55:51.435Z,10.17
2023-03-06T21:57:54.484Z,10.43
2023-03-06T21:59:56.973Z,10.03
2023-03-06T22:02:00.163Z,10.43
2023-03-06T22:04:02.355Z,9.70
2023-03-06T22:06:13.680Z,10.63
2023-03-06T22:08:15.794Z,10.33
2023-03-06T22:10:18.874Z,10.67
2023-03-06T22:12:22.020Z,10.23
2023-03-06T22:14:24.380Z,10.10
2023-03-06T22:16:26.534Z,10.47
2023-03-06T22:18:29.074Z,11.67
2023-03-06T22:20:33.400Z,9.83
2023-03-06T22:22:35.810Z,9.17
2023-03-06T22:24:37.940Z,10.43
2023-03-06T22:26:40.359Z,9.97
2023-03-06T22:28:42.731Z,10.33
2023-03-06T22:30:46.301Z,10.17
2023-03-06T22:32:48.504Z,10.30
2023-03-06T22:34:51.306Z,9.77
2023-03-06T22:36:53.552Z,10.53
2023-03-06T22:38:58.979Z,10.30
2023-03-06T22:41:02.023Z,10.97
2023-03-06T22:43:04.505Z,11.23
2023-03-06T22:45:07.125Z,8.43
2023-03-06T22:47:09.557Z,11.30
2023-03-06T22:49:13.016Z,11.57
2023-03-06T22:51:19.288Z,10.37
2023-03-06T22:53:21.476Z,9.43
2023-03-06T22:55:23.794Z,10.10
2023-03-06T22:57:25.899Z,8.93
2023-03-06T22:59:28.463Z,10.37
2023-03-06T23:01:34.109Z,9.97
2023-03-06T23:03:38.529Z,10.20
2023-03-06T23:05:42.456Z,10.77
2023-03-06T23:07:45.012Z,10.17
2023-03-06T23:09:47.500Z,9.63
2023-03-06T23:11:50.508Z,9.63
2023-03-06T23:13:53.664Z,11.90
2023-03-06T23:15:56.505Z,10.73
2023-03-06T23:17:58.571Z,10.87
2023-03-06T23:20:01.029Z,9.93
2023-03-06T23:22:03.168Z,10.70
2023-03-06T23:24:06.939Z,10.50
2023-03-06T23:26:10.657Z,10.63
2023-03-06T23:28:13.070Z,10.93
2023-03-06T23:30:15.943Z,10.67
2023-03-06T23:32:18.482Z,10.60
2023-03-06T23:34:20.562Z,10.63
2023-03-06T23:36:23.006Z,10.03
2023-03-06T23:38:25.321Z,10.13
2023-03-06T23:40:27.958Z,10.37
2023-03-06T23:42:30.101Z,10.20
2023-03-06T23:44:34.934Z,11.00
2023-03-06T23:46:37.123Z,10.37
2023-03-06T23:48:41.073Z,10.37
2023-03-06T23:50:43.235Z,10.00
2023-03-06T23:52:45.758Z,10.83
2023-03-06T23:54:50.064Z,9.27
2023-03-06T23:56:52.418Z,10.60
2023-03-06T23:58:55.369Z,9.40
